Time;durP1;ratioP1;P1;durP2;ratioP2;P2;SDS_P1;SDS_P2;PMS_P1;PMS_P2;Temp;Humidity;BMP_temperature;BMP_pressure;BME280_temperature;BME280_humidity;BME280_pressure;Samples;Min_cycle;Max_cycle;Signal;HPM_P1;HPM_P2
2024/01/09 00:01:48;;;;;;;130.10;34.20;;;;;;;-128.00;-1.00;-1.00;100263;1282;1002829;-31
2024/01/09 00:04:14;;;;;;;101.60;27.90;;;;;;;-128.00;-1.00;-1.00;100124;1281;1056489;-33
2024/01/09 00:06:39;;;;;;;;;;;;;;;-128.00;-1.00;-1.00;100178;1282;1002610;-30
2024/01/09 00:09:05;;;;;;;106.20;28.40;;;;;;;-128.00;-1.00;-1.00;100336;1282;1003029;-31
2024/01/09 00:11:31;;;;;;;92.20;27.50;;;;;;;-128.00;-1.00;-1.00;100389;1287;1045877;-28
2024/01/09 00:13:57;;;;;;;84.40;25.20;;;;;;;-128.00;-1.00;-1.00;100267;1281;1002831;-33
2024/01/09 00:16:22;;;;;;;104.00;27.70;;;;;;;-128.00;-1.00;-1.00;100225;1282;1002419;-31
2024/01/09 00:18:53;;;;;;;101.20;28.30;;;;;;;-128.00;-1.00;-1.00;100224;1282;1003155;-33
2024/01/09 00:21:19;;;;;;;109.80;30.50;;;;;;;-128.00;-1.00;-1.00;100265;1283;1038107;-29
2024/01/09 00:23:45;;;;;;;145.10;36.80;;;;;;;-128.00;-1.00;-1.00;100294;1281;1002788;-33
2024/01/09 00:26:11;;;;;;;144.70;38.80;;;;;;;-128.00;-1.00;-1.00;100284;1282;1003902;-33
2024/01/09 00:28:37;;;;;;;101.10;28.20;;;;;;;-128.00;-1.00;-1.00;100251;1286;1004916;-33
2024/01/09 00:31:03;;;;;;;89.70;25.00;;;;;;;-128.00;-1.00;-1.00;100257;1282;1003099;-33
2024/01/09 00:36:30;;;;;;;113.40;32.20;;;;;;;-128.00;-1.00;-1.00;100208;1282;1046787;-32
2024/01/09 00:38:55;;;;;;;213.00;47.50;;;;;;;-128.00;-1.00;-1.00;100328;1282;1004524;-32
2024/01/09 00:41:21;;;;;;;93.90;25.60;;;;;;;-128.00;-1.00;-1.00;100266;1282;1058651;-32
2024/01/09 00:43:46;;;;;;;78.60;22.40;;;;;;;-128.00;-1.00;-1.00;100261;1281;1002472;-33
2024/01/09 00:46:12;;;;;;;63.00;20.40;;;;;;;-128.00;-1.00;-1.00;100294;1282;1002632;-33
2024/01/09 00:48:37;;;;;;;102.80;30.40;;;;;;;-128.00;-1.00;-1.00;100329;1282;1003770;-30
2024/01/09 00:51:04;;;;;;;74.70;21.80;;;;;;;-128.00;-1.00;-1.00;100222;1282;1003289;-30
2024/01/09 00:53:29;;;;;;;112.50;30.00;;;;;;;-128.00;-1.00;-1.00;100175;1282;1012381;-30
2024/01/09 00:55:55;;;;;;;129.00;35.30;;;;;;;-128.00;-1.00;-1.00;100150;1283;1003770;-33
2024/01/09 00:58:21;;;;;;;123.60;41.80;;;;;;;-128.00;-1.00;-1.00;100183;1282;1059683;-30
2024/01/09 01:00:47;;;;;;;131.20;36.00;;;;;;;-128.00;-1.00;-1.00;100309;1287;1003795;-30
2024/01/09 01:03:12;;;;;;;;;;;;;;;-128.00;-1.00;-1.00;100270;1281;1003802;-31
2024/01/09 01:05:38;;;;;;;90.80;28.40;;;;;;;-128.00;-1.00;-1.00;100285;1281;1003293;-30
2024/01/09 01:08:04;;;;;;;110.20;36.20;;;;;;;-128.00;-1.00;-1.00;100286;1282;1002886;-31
2024/01/09 01:10:30;;;;;;;97.90;31.00;;;;;;;-128.00;-1.00;-1.00;100309;1282;1056022;-30
2024/01/09 01:12:55;;;;;;;362.40;85.00;;;;;;;-128.00;-1.00;-1.00;100260;1286;1003241;-31
2024/01/09 01:15:23;;;;;;;99.30;29.60;;;;;;;-128.00;-1.00;-1.00;100220;1282;1004190;-31
2024/01/09 01:17:48;;;;;;;91.20;27.20;;;;;;;-128.00;-1.00;-1.00;100236;1282;1046932;-33
2024/01/09 01:20:15;;;;;;;105.10;32.80;;;;;;;-128.00;-1.00;-1.00;100203;1281;1004083;-33
2024/01/09 01:22:41;;;;;;;177.70;59.80;;;;;;;-128.00;-1.00;-1.00;100255;1281;1002844;-30
2024/01/09 01:25:08;;;;;;;104.90;30.00;;;;;;;-128.00;-1.00;-1.00;100267;1285;1003765;-32
2024/01/09 01:27:33;;;;;;;129.70;36.10;;;;;;;-128.00;-1.00;-1.00;100229;1282;1003549;-31
2024/01/09 01:29:59;;;;;;;132.20;33.00;;;;;;;-128.00;-1.00;-1.00;100338;1285;1003734;-29
2024/01/09 01:32:24;;;;;;;164.90;42.80;;;;;;;-128.00;-1.00;-1.00;100329;1281;1060251;-29
2024/01/09 01:34:50;;;;;;;156.60;46.30;;;;;;;-128.00;-1.00;-1.00;100232;1283;1003556;-32
2024/01/09 01:37:16;;;;;;;138.10;38.80;;;;;;;-128.00;-1.00;-1.00;100196;1281;1003176;-32
2024/01/09 01:39:41;;;;;;;106.30;30.00;;;;;;;-128.00;-1.00;-1.00;100288;1285;1002966;-29
2024/01/09 01:42:07;;;;;;;125.40;35.50;;;;;;;-128.00;-1.00;-1.00;100229;1281;1003417;-31
2024/01/09 01:44:32;;;;;;;161.40;42.80;;;;;;;-128.00;-1.00;-1.00;100231;1281;1003163;-29
2024/01/09 01:46:58;;;;;;;152.50;39.30;;;;;;;-128.00;-1.00;-1.00;100224;1281;1003099;-29
2024/01/09 01:49:24;;;;;;;116.40;32.20;;;;;;;-128.00;-1.00;-1.00;100227;1286;1038686;-33
2024/01/09 02:37:06;;;;;;;139.40;42.00;;;;;;;-14.63;100.00;101380.80;103697;1284;100118;-32
2024/01/09 02:39:31;;;;;;;134.00;39.10;;;;;;;-14.56;100.00;101379.81;103859;1285;60451;-33
2024/01/09 02:41:57;;;;;;;141.90;41.50;;;;;;;-14.57;100.00;101370.70;103874;1285;60485;-33
2024/01/09 02:44:23;;;;;;;117.60;35.00;;;;;;;-14.52;100.00;101373.14;103994;1299;60549;-29
2024/01/09 02:46:48;;;;;;;140.60;40.00;;;;;;;-14.50;100.00;101373.48;103926;1299;60395;-33
2024/01/09 02:49:14;;;;;;;113.30;35.80;;;;;;;-14.47;100.00;101374.84;103945;1285;60450;-31
2024/01/09 02:51:39;;;;;;;110.50;34.10;;;;;;;-59.88;59.60;60822.51;102554;1282;1002415;-31
2024/01/09 02:54:05;;;;;;;126.10;36.10;;;;;;;-128.00;-1.00;-1.00;100279;1282;1003654;-29
2024/01/09 02:56:32;;;;;;;131.00;42.70;;;;;;;-128.00;-1.00;-1.00;100355;1283;1003520;-30
2024/01/09 02:58:58;;;;;;;110.40;34.50;;;;;;;-128.00;-1.00;-1.00;100391;1282;1058448;-31
2024/01/09 03:01:24;;;;;;;161.00;40.10;;;;;;;-128.00;-1.00;-1.00;100324;1282;1003455;-31
2024/01/09 03:03:50;;;;;;;121.70;38.30;;;;;;;-128.00;-1.00;-1.00;100369;1285;1002709;-28
2024/01/09 03:06:15;;;;;;;;;;;;;;;-128.00;-1.00;-1.00;100359;1282;1059237;-30
2024/01/09 03:08:41;;;;;;;127.30;36.40;;;;;;;-128.00;-1.00;-1.00;100385;1283;1002973;-31
2024/01/09 03:11:07;;;;;;;246.20;94.30;;;;;;;-128.00;-1.00;-1.00;100221;1282;1003595;-31
2024/01/09 03:13:32;;;;;;;143.90;43.90;;;;;;;-128.00;-1.00;-1.00;100226;1283;1002857;-29
2024/01/09 03:15:58;;;;;;;144.60;43.80;;;;;;;-128.00;-1.00;-1.00;100229;1282;1002882;-29
2024/01/09 03:18:23;;;;;;;141.20;44.60;;;;;;;-128.00;-1.00;-1.00;100378;1283;1003009;-30
2024/01/09 03:20:49;;;;;;;148.50;44.10;;;;;;;-128.00;-1.00;-1.00;100265;1281;1059442;-32
2024/01/09 03:23:14;;;;;;;154.00;45.20;;;;;;;-128.00;-1.00;-1.00;100309;1282;1003033;-30
2024/01/09 03:25:40;;;;;;;;;;;;;;;-128.00;-1.00;-1.00;100378;1283;1046205;-34
2024/01/09 03:28:06;;;;;;;133.30;41.70;;;;;;;-128.00;-1.00;-1.00;100446;1283;1003087;-30
2024/01/09 03:30:31;;;;;;;;;;;;;;;-128.00;-1.00;-1.00;100439;1283;1057806;-34
2024/01/09 03:32:57;;;;;;;131.60;41.10;;;;;;;-128.00;-1.00;-1.00;100348;1283;1004034;-33
2024/01/09 03:35:23;;;;;;;145.80;45.10;;;;;;;-128.00;-1.00;-1.00;100415;1283;1003378;-32
2024/01/09 03:37:48;;;;;;;129.70;38.50;;;;;;;-128.00;-1.00;-1.00;100335;1282;1058439;-31
2024/01/09 03:40:14;;;;;;;143.80;46.40;;;;;;;-128.00;-1.00;-1.00;100283;1282;1002592;-31
2024/01/09 03:42:40;;;;;;;156.60;41.60;;;;;;;-128.00;-1.00;-1.00;100249;1282;1004247;-32
2024/01/09 03:45:06;;;;;;;184.20;52.30;;;;;;;-128.00;-1.00;-1.00;100305;1285;1039135;-29
2024/01/09 03:47:32;;;;;;;185.40;56.50;;;;;;;-128.00;-1.00;-1.00;100241;1283;1003106;-32
2024/01/09 03:49:58;;;;;;;;;;;;;;;-128.00;-1.00;-1.00;100386;1282;1003829;-34
2024/01/09 03:52:23;;;;;;;158.10;46.20;;;;;;;-128.00;-1.00;-1.00;100328;1283;1003292;-31
2024/01/09 03:54:49;;;;;;;;;;;;;;;-128.00;-1.00;-1.00;100356;1282;1013824;-33
2024/01/09 03:57:14;;;;;;;160.40;49.60;;;;;;;-128.00;-1.00;-1.00;100299;1283;1003473;-30
2024/01/09 03:59:41;;;;;;;164.00;51.90;;;;;;;-128.00;-1.00;-1.00;100344;1283;1004003;-31
2024/01/09 04:02:07;;;;;;;160.00;51.10;;;;;;;-128.00;-1.00;-1.00;100263;1282;1002644;-28
2024/01/09 04:04:33;;;;;;;;;;;;;;;-128.00;-1.00;-1.00;100280;1282;1003835;-31
2024/01/09 04:06:58;;;;;;;113.90;38.40;;;;;;;-128.00;-1.00;-1.00;100297;1283;1003384;-32
2024/01/09 04:09:25;;;;;;;130.40;42.40;;;;;;;-128.00;-1.00;-1.00;100416;1281;1045999;-32
2024/01/09 04:11:50;;;;;;;107.80;36.20;;;;;;;-128.00;-1.00;-1.00;100280;1282;1002860;-33
2024/01/09 04:14:16;;;;;;;;;;;;;;;-128.00;-1.00;-1.00;100315;1285;1003120;-31
2024/01/09 04:16:46;;;;;;;88.10;27.90;;;;;;;-128.00;-1.00;-1.00;100192;1282;1003289;-31
2024/01/09 04:19:12;;;;;;;169.80;51.80;;;;;;;-128.00;-1.00;-1.00;100285;1285;1039456;-28
2024/01/09 04:21:38;;;;;;;213.60;73.20;;;;;;;-128.00;-1.00;-1.00;100246;1283;1002903;-31
2024/01/09 04:24:03;;;;;;;172.80;55.40;;;;;;;-128.00;-1.00;-1.00;100295;1282;1003518;-28
2024/01/09 04:26:29;;;;;;;197.10;66.20;;;;;;;-128.00;-1.00;-1.00;100253;1283;1059214;-33
2024/01/09 04:28:55;;;;;;;156.70;50.30;;;;;;;-128.00;-1.00;-1.00;100374;1282;1003662;-33
2024/01/09 04:31:24;;;;;;;111.00;37.20;;;;;;;-128.00;-1.00;-1.00;100349;1282;1004837;-32
2024/01/09 04:33:49;;;;;;;111.30;37.90;;;;;;;-128.00;-1.00;-1.00;100458;1283;1060070;-30
2024/01/09 04:36:16;;;;;;;128.20;38.80;;;;;;;-128.00;-1.00;-1.00;100346;1281;1002528;-33
2024/01/09 04:38:45;;;;;;;87.40;28.50;;;;;;;-128.00;-1.00;-1.00;100330;1282;1011977;-31
2024/01/09 04:41:15;;;;;;;97.00;30.60;;;;;;;-128.00;-1.00;-1.00;100343;1288;1002798;-31
2024/01/09 04:43:40;;;;;;;98.70;30.40;;;;;;;-128.00;-1.00;-1.00;100309;1285;1046610;-28
2024/01/09 04:46:07;;;;;;;110.50;34.00;;;;;;;-128.00;-1.00;-1.00;100337;1283;1003937;-31
2024/01/09 04:48:33;;;;;;;245.30;60.30;;;;;;;-128.00;-1.00;-1.00;100294;1282;1057674;-30
2024/01/09 04:50:58;;;;;;;160.50;40.20;;;;;;;-128.00;-1.00;-1.00;100272;1282;1003468;-32
2024/01/09 04:53:24;;;;;;;151.40;40.60;;;;;;;-128.00;-1.00;-1.00;100188;1283;1004442;-30
2024/01/09 04:55:49;;;;;;;133.00;38.60;;;;;;;-128.00;-1.00;-1.00;100294;1282;1003238;-31
2024/01/09 04:58:15;;;;;;;122.90;38.30;;;;;;;-128.00;-1.00;-1.00;100303;1282;1003541;-29
2024/01/09 05:00:40;;;;;;;136.40;38.10;;;;;;;-128.00;-1.00;-1.00;100308;1283;1003065;-29
2024/01/09 05:03:06;;;;;;;128.20;37.80;;;;;;;-128.00;-1.00;-1.00;100283;1288;1003743;-32
2024/01/09 05:05:31;;;;;;;138.70;39.40;;;;;;;-128.00;-1.00;-1.00;100294;1282;1003560;-35
2024/01/09 05:07:57;;;;;;;135.00;40.10;;;;;;;-128.00;-1.00;-1.00;100318;1283;1004646;-29
2024/01/09 05:10:22;;;;;;;118.40;36.80;;;;;;;-128.00;-1.00;-1.00;100382;1283;1012315;-34
2024/01/09 05:12:48;;;;;;;118.80;35.60;;;;;;;-128.00;-1.00;-1.00;100314;1282;1004284;-29
2024/01/09 05:15:14;;;;;;;140.10;38.70;;;;;;;-128.00;-1.00;-1.00;100350;1285;1002763;-29
2024/01/09 05:17:39;;;;;;;;;;;;;;;-128.00;-1.00;-1.00;100372;1285;1056243;-31
2024/01/09 05:20:06;;;;;;;110.40;33.30;;;;;;;-128.00;-1.00;-1.00;100342;1287;1004517;-34
2024/01/09 05:22:33;;;;;;;139.30;40.80;;;;;;;-128.00;-1.00;-1.00;100306;1285;1039156;-30
2024/01/09 05:24:58;;;;;;;129.50;35.70;;;;;;;-128.00;-1.00;-1.00;100293;1283;1003376;-33
2024/01/09 05:27:24;;;;;;;154.90;45.00;;;;;;;-128.00;-1.00;-1.00;100294;1283;1004621;-31
2024/01/09 05:29:49;;;;;;;121.40;38.50;;;;;;;-128.00;-1.00;-1.00;100324;1283;1002701;-30
2024/01/09 05:32:15;;;;;;;111.50;35.10;;;;;;;-128.00;-1.00;-1.00;100271;1282;1003167;-29
2024/01/09 05:34:40;;;;;;;126.70;36.50;;;;;;;-128.00;-1.00;-1.00;100288;1282;1003912;-30
2024/01/09 05:37:07;;;;;;;113.30;34.00;;;;;;;-128.00;-1.00;-1.00;100268;1282;1003229;-32
2024/01/09 05:39:32;;;;;;;109.50;33.20;;;;;;;-128.00;-1.00;-1.00;100268;1282;1002696;-28
2024/01/09 05:41:58;;;;;;;114.80;32.00;;;;;;;-128.00;-1.00;-1.00;100256;1283;1013185;-31
2024/01/09 05:44:23;;;;;;;105.90;33.20;;;;;;;-128.00;-1.00;-1.00;100306;1287;1002935;-28
2024/01/09 05:46:50;;;;;;;113.40;34.90;;;;;;;-128.00;-1.00;-1.00;100248;1283;1003134;-29
2024/01/09 05:49:15;;;;;;;111.10;32.70;;;;;;;-128.00;-1.00;-1.00;100247;1283;1003873;-29
2024/01/09 05:51:41;;;;;;;123.80;33.40;;;;;;;-128.00;-1.00;-1.00;100354;1283;1003588;-31
2024/01/09 05:54:06;;;;;;;130.70;35.40;;;;;;;-128.00;-1.00;-1.00;100319;1283;1003880;-29
2024/01/09 05:56:33;;;;;;;82.30;25.10;;;;;;;-128.00;-1.00;-1.00;100301;1282;1046179;-32
2024/01/09 05:58:58;;;;;;;121.60;34.20;;;;;;;-128.00;-1.00;-1.00;100317;1283;1002857;-32
2024/01/09 06:01:24;;;;;;;;;;;;;;;-128.00;-1.00;-1.00;100299;1282;1059291;-30
2024/01/09 06:03:51;;;;;;;109.30;33.60;;;;;;;-128.00;-1.00;-1.00;100254;1282;1003338;-31
2024/01/09 06:06:16;;;;;;;89.40;26.60;;;;;;;-128.00;-1.00;-1.00;100279;1283;1046330;-30
2024/01/09 06:08:42;;;;;;;103.60;33.00;;;;;;;-128.00;-1.00;-1.00;100403;1282;1002898;-33
2024/01/09 06:11:08;;;;;;;98.20;30.40;;;;;;;-128.00;-1.00;-1.00;100279;1282;1058192;-30
2024/01/09 06:13:34;;;;;;;165.30;56.90;;;;;;;-128.00;-1.00;-1.00;100293;1286;1002963;-30
2024/01/09 06:16:00;;;;;;;194.60;69.00;;;;;;;-128.00;-1.00;-1.00;100260;1288;1003724;-33
2024/01/09 06:18:26;;;;;;;;;;;;;;;-128.00;-1.00;-1.00;100255;1282;1059002;-31
2024/01/09 06:20:52;;;;;;;213.00;64.60;;;;;;;-128.00;-1.00;-1.00;100313;1283;1002674;-30
2024/01/09 06:23:17;;;;;;;;;;;;;;;-128.00;-1.00;-1.00;100235;1288;1003874;-32
2024/01/09 06:25:42;;;;;;;127.20;40.60;;;;;;;-128.00;-1.00;-1.00;100263;1287;1002855;-30
2024/01/09 06:28:08;;;;;;;122.00;35.80;;;;;;;-128.00;-1.00;-1.00;100280;1282;1002373;-33
2024/01/09 06:30:34;;;;;;;;;;;;;;;-128.00;-1.00;-1.00;100282;1285;1002580;-34
2024/01/09 06:33:00;;;;;;;109.10;31.50;;;;;;;-128.00;-1.00;-1.00;100293;1282;1003201;-31
2024/01/09 06:35:26;;;;;;;126.80;38.40;;;;;;;-128.00;-1.00;-1.00;100291;1287;1014011;-31
2024/01/09 06:37:52;;;;;;;119.30;35.40;;;;;;;-128.00;-1.00;-1.00;100402;1288;1003052;-32
2024/01/09 06:40:19;;;;;;;116.90;36.40;;;;;;;-128.00;-1.00;-1.00;100366;1282;1059787;-31
2024/01/09 06:42:46;;;;;;;110.70;32.80;;;;;;;-128.00;-1.00;-1.00;100368;1283;1002866;-29
2024/01/09 06:45:14;;;;;;;96.60;33.00;;;;;;;-128.00;-1.00;-1.00;100184;1285;1005129;-29
2024/01/09 06:47:41;;;;;;;94.60;26.50;;;;;;;-128.00;-1.00;-1.00;100248;1282;1003028;-31
2024/01/09 06:50:07;;;;;;;116.00;33.00;;;;;;;-128.00;-1.00;-1.00;100285;1285;1003254;-33
2024/01/09 06:52:32;;;;;;;94.80;30.70;;;;;;;-128.00;-1.00;-1.00;100301;1282;1004398;-32
2024/01/09 06:54:58;;;;;;;120.30;38.00;;;;;;;-128.00;-1.00;-1.00;100309;1285;1003059;-33
2024/01/09 06:57:24;;;;;;;441.00;108.30;;;;;;;-128.00;-1.00;-1.00;100232;1285;1003172;-32
2024/01/09 06:59:51;;;;;;;335.40;70.10;;;;;;;-128.00;-1.00;-1.00;100303;1283;1003181;-28
2024/01/09 07:02:16;;;;;;;271.30;53.70;;;;;;;-128.00;-1.00;-1.00;100208;1282;1002992;-28
2024/01/09 07:04:42;;;;;;;176.50;42.30;;;;;;;-128.00;-1.00;-1.00;100291;1283;1003219;-29
2024/01/09 07:07:07;;;;;;;;;;;;;;;-128.00;-1.00;-1.00;100247;1283;1055154;-31
2024/01/09 07:09:33;;;;;;;132.50;37.80;;;;;;;-128.00;-1.00;-1.00;100262;1288;1003228;-28
2024/01/09 07:11:59;;;;;;;191.30;42.40;;;;;;;-128.00;-1.00;-1.00;100289;1282;1003056;-30
2024/01/09 07:14:25;;;;;;;247.80;60.80;;;;;;;-128.00;-1.00;-1.00;100267;1288;1046006;-33
2024/01/09 07:16:51;;;;;;;;;;;;;;;-128.00;-1.00;-1.00;100330;1285;1003348;-29
2024/01/09 07:19:16;;;;;;;142.80;41.50;;;;;;;-128.00;-1.00;-1.00;100285;1285;1003445;-29
2024/01/09 07:21:42;;;;;;;122.80;37.00;;;;;;;-128.00;-1.00;-1.00;100228;1286;1013076;-32
2024/01/09 07:24:07;;;;;;;139.60;42.10;;;;;;;-128.00;-1.00;-1.00;100279;1285;1003257;-29
2024/01/09 07:26:38;;;;;;;144.80;40.10;;;;;;;-128.00;-1.00;-1.00;100238;1282;1003018;-32
2024/01/09 07:29:04;;;;;;;129.90;39.50;;;;;;;-128.00;-1.00;-1.00;100310;1282;1056316;-33
2024/01/09 07:31:29;;;;;;;150.20;41.40;;;;;;;-128.00;-1.00;-1.00;100254;1283;1002313;-29
2024/01/09 07:33:55;;;;;;;157.40;43.10;;;;;;;-128.00;-1.00;-1.00;100257;1283;1003224;-32
2024/01/09 07:36:21;;;;;;;127.20;38.10;;;;;;;-128.00;-1.00;-1.00;100258;1285;1046139;-31
2024/01/09 07:38:47;;;;;;;;;;;;;;;-128.00;-1.00;-1.00;100274;1283;1003691;-29
2024/01/09 07:41:13;;;;;;;104.10;37.20;;;;;;;-128.00;-1.00;-1.00;100274;1288;1002991;-32
2024/01/09 07:43:39;;;;;;;104.90;33.20;;;;;;;-128.00;-1.00;-1.00;100196;1282;1012381;-32
2024/01/09 07:46:05;;;;;;;127.50;35.60;;;;;;;-128.00;-1.00;-1.00;100217;1285;1003665;-30
2024/01/09 07:48:31;;;;;;;116.50;32.90;;;;;;;-128.00;-1.00;-1.00;100300;1283;1003212;-30
2024/01/09 07:50:59;;;;;;;109.90;32.20;;;;;;;-128.00;-1.00;-1.00;100198;1283;1002742;-33
2024/01/09 07:53:25;;;;;;;122.20;36.70;;;;;;;-128.00;-1.00;-1.00;100228;1282;1003658;-30
2024/01/09 07:55:50;;;;;;;131.00;35.70;;;;;;;-128.00;-1.00;-1.00;100190;1282;1003908;-29
2024/01/09 07:58:16;;;;;;;143.30;42.80;;;;;;;-128.00;-1.00;-1.00;100285;1285;1039282;-31
2024/01/09 08:00:42;;;;;;;138.90;40.20;;;;;;;-128.00;-1.00;-1.00;100208;1285;1003158;-29
2024/01/09 08:03:07;;;;;;;136.10;40.60;;;;;;;-128.00;-1.00;-1.00;100276;1289;1005129;-32
2024/01/09 08:05:33;;;;;;;122.40;38.90;;;;;;;-128.00;-1.00;-1.00;100228;1285;1004204;-30
2024/01/09 08:07:58;;;;;;;103.90;32.40;;;;;;;-128.00;-1.00;-1.00;100183;1283;1003937;-33
2024/01/09 08:10:24;;;;;;;116.50;36.70;;;;;;;-128.00;-1.00;-1.00;100383;1285;1003153;-31
2024/01/09 08:12:49;;;;;;;;;;;;;;;-128.00;-1.00;-1.00;100036;1282;1059397;-29
2024/01/09 08:15:15;;;;;;;124.70;35.30;;;;;;;-128.00;-1.00;-1.00;100323;1283;1002913;-31
2024/01/09 08:17:41;;;;;;;127.30;39.90;;;;;;;-128.00;-1.00;-1.00;100198;1283;1013187;-29
2024/01/09 08:20:07;;;;;;;157.90;42.60;;;;;;;-128.00;-1.00;-1.00;100248;1285;1003014;-31
2024/01/09 08:22:32;;;;;;;;;;;;;;;-128.00;-1.00;-1.00;100478;1283;1003242;-30
2024/01/09 08:24:59;;;;;;;129.90;39.30;;;;;;;-128.00;-1.00;-1.00;100289;1288;1003030;-31
2024/01/09 08:27:24;;;;;;;129.40;40.40;;;;;;;-128.00;-1.00;-1.00;100250;1286;1004233;-33
2024/01/09 08:29:50;;;;;;;112.10;34.40;;;;;;;-128.00;-1.00;-1.00;100275;1285;1004365;-31
2024/01/09 08:32:18;;;;;;;96.50;31.00;;;;;;;-128.00;-1.00;-1.00;100263;1285;1004060;-31
2024/01/09 08:34:44;;;;;;;95.60;31.20;;;;;;;-128.00;-1.00;-1.00;100334;1282;1060459;-32
2024/01/09 08:37:09;;;;;;;105.80;34.40;;;;;;;-128.00;-1.00;-1.00;100216;1283;1003109;-30
2024/01/09 08:39:35;;;;;;;99.20;32.40;;;;;;;-128.00;-1.00;-1.00;100294;1283;1003646;-30
2024/01/09 08:42:00;;;;;;;126.00;40.90;;;;;;;-128.00;-1.00;-1.00;100281;1285;1039030;-32
2024/01/09 08:44:27;;;;;;;132.80;40.40;;;;;;;-128.00;-1.00;-1.00;100316;1282;1003406;-33
2024/01/09 08:46:52;;;;;;;157.80;48.40;;;;;;;-128.00;-1.00;-1.00;100330;1283;1055820;-30
2024/01/09 08:49:19;;;;;;;;;;;;;;;-128.00;-1.00;-1.00;100264;1283;1003752;-31
2024/01/09 08:51:45;;;;;;;161.40;54.40;;;;;;;-128.00;-1.00;-1.00;100271;1285;1003308;-32
2024/01/09 08:54:11;;;;;;;153.50;50.50;;;;;;;-128.00;-1.00;-1.00;100279;1283;1003032;-30
2024/01/09 08:56:36;;;;;;;161.90;42.20;;;;;;;-128.00;-1.00;-1.00;100310;1286;1003507;-31
2024/01/09 08:59:02;;;;;;;122.30;35.50;;;;;;;-128.00;-1.00;-1.00;100208;1289;1055236;-31
2024/01/09 09:01:29;;;;;;;137.40;38.50;;;;;;;-128.00;-1.00;-1.00;100369;1283;1003156;-31
2024/01/09 09:03:54;;;;;;;109.60;32.70;;;;;;;-128.00;-1.00;-1.00;100361;1285;1039121;-32
2024/01/09 09:06:20;;;;;;;117.80;40.00;;;;;;;-128.00;-1.00;-1.00;100384;1283;1002748;-29
2024/01/09 09:08:46;;;;;;;123.60;37.60;;;;;;;-128.00;-1.00;-1.00;100322;1282;1055213;-30
2024/01/09 09:11:17;;;;;;;105.10;33.10;;;;;;;-128.00;-1.00;-1.00;100185;1283;1003541;-33
2024/01/09 09:13:43;;;;;;;127.00;42.60;;;;;;;-128.00;-1.00;-1.00;100285;1282;1037980;-31
2024/01/09 09:16:09;;;;;;;99.70;36.20;;;;;;;-128.00;-1.00;-1.00;100378;1283;1003152;-30
2024/01/09 09:18:35;;;;;;;91.90;34.40;;;;;;;-128.00;-1.00;-1.00;100263;1283;1003060;-30
2024/01/09 09:21:02;;;;;;;92.10;33.10;;;;;;;-128.00;-1.00;-1.00;100304;1285;1003512;-31
2024/01/09 09:23:28;;;;;;;105.80;38.10;;;;;;;-128.00;-1.00;-1.00;100255;1285;1013006;-32
2024/01/09 09:25:53;;;;;;;80.50;28.40;;;;;;;-128.00;-1.00;-1.00;100209;1283;1002782;-32
2024/01/09 09:28:19;;;;;;;161.90;57.00;;;;;;;-128.00;-1.00;-1.00;100289;1283;1003593;-31
2024/01/09 09:30:45;;;;;;;109.80;38.80;;;;;;;-128.00;-1.00;-1.00;100272;1289;1003234;-34
2024/01/09 09:33:10;;;;;;;96.90;32.50;;;;;;;-128.00;-1.00;-1.00;100244;1283;1003158;-34
2024/01/09 09:35:36;;;;;;;102.00;36.30;;;;;;;-128.00;-1.00;-1.00;100205;1289;1002901;-33
2024/01/09 09:38:03;;;;;;;162.00;47.30;;;;;;;-128.00;-1.00;-1.00;100372;1283;1046384;-31
2024/01/09 09:40:29;;;;;;;180.10;59.70;;;;;;;-128.00;-1.00;-1.00;100300;1287;1002972;-31
2024/01/09 09:42:58;;;;;;;101.40;35.60;;;;;;;-128.00;-1.00;-1.00;100260;1289;1003360;-31
2024/01/09 09:45:25;;;;;;;95.00;34.00;;;;;;;-128.00;-1.00;-1.00;100269;1286;1012639;-31
2024/01/09 09:47:53;;;;;;;83.50;29.90;;;;;;;-128.00;-1.00;-1.00;100332;1285;1003522;-32
2024/01/09 09:50:19;;;;;;;72.70;27.20;;;;;;;-128.00;-1.00;-1.00;100330;1282;1003903;-32
2024/01/09 09:52:45;;;;;;;81.10;30.80;;;;;;;-128.00;-1.00;-1.00;100249;1282;1004589;-32
2024/01/09 09:55:11;;;;;;;74.00;29.70;;;;;;;-128.00;-1.00;-1.00;100209;1289;1003582;-31
2024/01/09 09:57:37;;;;;;;97.40;35.20;;;;;;;-128.00;-1.00;-1.00;100274;1283;1003209;-31
2024/01/09 10:00:04;;;;;;;115.30;40.70;;;;;;;-128.00;-1.00;-1.00;100238;1289;1038999;-31
2024/01/09 10:02:30;;;;;;;102.30;36.00;;;;;;;-128.00;-1.00;-1.00;100321;1285;1003025;-29
2024/01/09 10:04:56;;;;;;;130.90;40.60;;;;;;;-128.00;-1.00;-1.00;100250;1288;1004126;-30
2024/01/09 10:07:22;;;;;;;94.30;35.40;;;;;;;-128.00;-1.00;-1.00;100260;1282;1059014;-30
2024/01/09 10:09:52;;;;;;;;;;;;;;;-128.00;-1.00;-1.00;100243;1282;1004545;-29
2024/01/09 10:12:22;;;;;;;111.50;39.70;;;;;;;-128.00;-1.00;-1.00;100306;1289;1038782;-33
2024/01/09 10:15:04;;;;;;;109.00;40.70;;;;;;;-128.00;-1.00;-1.00;100332;1283;1046184;-33
2024/01/09 10:17:29;;;;;;;104.60;40.50;;;;;;;-128.00;-1.00;-1.00;100249;1282;1060487;-32
2024/01/09 10:19:55;;;;;;;107.70;40.70;;;;;;;-128.00;-1.00;-1.00;100305;1286;1003449;-33
2024/01/09 10:22:21;;;;;;;110.70;41.40;;;;;;;-128.00;-1.00;-1.00;100293;1282;1013386;-32
2024/01/09 10:24:46;;;;;;;99.60;37.20;;;;;;;-128.00;-1.00;-1.00;100214;1283;1002930;-31
2024/01/09 10:27:12;;;;;;;296.50;70.80;;;;;;;-128.00;-1.00;-1.00;100277;1283;1003751;-32
2024/01/09 10:29:44;;;;;;;142.80;46.00;;;;;;;-128.00;-1.00;-1.00;100286;1282;1003068;-29
2024/01/09 10:32:13;;;;;;;123.70;45.80;;;;;;;-128.00;-1.00;-1.00;100259;1287;1059707;-29
2024/01/09 10:34:39;;;;;;;108.70;40.60;;;;;;;-128.00;-1.00;-1.00;100337;1283;1015917;-32
2024/01/09 10:37:08;;;;;;;117.30;41.00;;;;;;;-128.00;-1.00;-1.00;100266;1287;1003103;-32
2024/01/09 10:39:34;;;;;;;99.10;36.40;;;;;;;-128.00;-1.00;-1.00;100278;1284;1003768;-30
2024/01/09 10:42:05;;;;;;;105.00;36.70;;;;;;;-128.00;-1.00;-1.00;100085;1283;1003140;-32
2024/01/09 10:44:30;;;;;;;130.90;45.00;;;;;;;-128.00;-1.00;-1.00;100351;1283;1055332;-31
2024/01/09 10:46:57;;;;;;;137.90;48.10;;;;;;;-128.00;-1.00;-1.00;100173;1283;1003063;-32
2024/01/09 10:49:22;;;;;;;109.30;39.50;;;;;;;-128.00;-1.00;-1.00;100290;1283;1004942;-31
2024/01/09 10:51:48;;;;;;;107.10;40.30;;;;;;;-128.00;-1.00;-1.00;100248;1287;1003412;-30
2024/01/09 10:54:14;;;;;;;97.50;35.10;;;;;;;-128.00;-1.00;-1.00;100219;1283;1060323;-31
2024/01/09 10:56:40;;;;;;;86.60;35.60;;;;;;;-128.00;-1.00;-1.00;100301;1282;1003808;-32
2024/01/09 10:59:05;;;;;;;91.10;34.10;;;;;;;-128.00;-1.00;-1.00;100206;1288;1002477;-32
2024/01/09 11:01:31;;;;;;;93.60;33.70;;;;;;;-128.00;-1.00;-1.00;100186;1288;1039075;-31
2024/01/09 11:03:57;;;;;;;98.90;34.90;;;;;;;-128.00;-1.00;-1.00;100329;1283;1003320;-33
2024/01/09 11:06:23;;;;;;;101.60;38.30;;;;;;;-128.00;-1.00;-1.00;100302;1285;1002873;-31
2024/01/09 11:08:50;;;;;;;96.30;35.20;;;;;;;-128.00;-1.00;-1.00;100344;1282;1003542;-33
2024/01/09 11:11:16;;;;;;;82.40;31.60;;;;;;;-128.00;-1.00;-1.00;100200;1282;1013075;-32
2024/01/09 11:13:43;;;;;;;693.60;197.60;;;;;;;-128.00;-1.00;-1.00;100274;1282;1003145;-33
2024/01/09 11:16:08;;;;;;;201.70;64.90;;;;;;;-128.00;-1.00;-1.00;100342;1285;1003142;-30
2024/01/09 11:18:34;;;;;;;243.50;89.00;;;;;;;-128.00;-1.00;-1.00;100338;1282;1003434;-32
2024/01/09 11:21:01;;;;;;;274.90;81.40;;;;;;;-128.00;-1.00;-1.00;100236;1283;1058581;-31
2024/01/09 11:23:52;;;;;;;475.30;132.30;;;;;;;-128.00;-1.00;-1.00;100231;1283;1003412;-33
2024/01/09 11:26:19;;;;;;;224.50;62.50;;;;;;;-128.00;-1.00;-1.00;100275;1283;1038875;-31
2024/01/09 11:28:47;;;;;;;200.10;58.40;;;;;;;-128.00;-1.00;-1.00;100311;1285;1004023;-31
2024/01/09 11:31:17;;;;;;;120.80;41.30;;;;;;;-128.00;-1.00;-1.00;100229;1288;1060163;-31
2024/01/09 11:33:42;;;;;;;94.40;32.80;;;;;;;-128.00;-1.00;-1.00;100301;1283;1055544;-31
2024/01/09 11:36:09;;;;;;;101.90;37.60;;;;;;;-128.00;-1.00;-1.00;100213;1282;1004304;-34
2024/01/09 11:38:34;;;;;;;150.80;56.00;;;;;;;-128.00;-1.00;-1.00;100332;1283;1003764;-38
2024/01/09 11:41:04;;;;;;;97.40;36.10;;;;;;;-128.00;-1.00;-1.00;100318;1285;1003988;-32
2024/01/09 11:43:49;;;;;;;92.00;36.00;;;;;;;-128.00;-1.00;-1.00;100206;1282;1060161;-32
2024/01/09 11:46:15;;;;;;;107.20;39.20;;;;;;;-128.00;-1.00;-1.00;100255;1281;1057662;-31